createdAt,value
2023-05-04T00:02:12.761Z,14.70
2023-05-04T00:04:42.601Z,14.40
2023-05-04T00:07:10.456Z,14.60
2023-05-04T00:09:38.173Z,14.10
2023-05-04T00:12:07.824Z,14.90
2023-05-04T00:14:35.645Z,14.40
2023-05-04T00:17:06.125Z,14.80
2023-05-04T00:19:34.009Z,14.20
2023-05-04T00:22:02.284Z,13.90
2023-05-04T00:24:30.115Z,14.30
2023-05-04T00:26:57.832Z,13.70
2023-05-04T00:29:26.958Z,14.10
2023-05-04T00:31:54.744Z,14.30
2023-05-04T00:34:22.620Z,13.90
2023-05-04T00:36:50.329Z,14.00
2023-05-04T00:39:18.049Z,13.80
2023-05-04T00:41:45.857Z,14.00
2023-05-04T00:44:14.081Z,13.70
2023-05-04T00:46:43.490Z,13.60
2023-05-04T00:49:11.429Z,13.50
2023-05-04T00:51:39.187Z,13.70
2023-05-04T00:54:06.941Z,13.60
2023-05-04T00:56:40.972Z,13.50
2023-05-04T00:59:08.690Z,13.70
2023-05-04T01:01:36.624Z,13.30
2023-05-04T01:04:06.129Z,13.30
2023-05-04T01:06:42.530Z,13.40
2023-05-04T01:09:19.852Z,12.90
2023-05-04T01:11:55.769Z,13.00
2023-05-04T01:14:24.002Z,13.10
2023-05-04T01:16:55.969Z,13.10
2023-05-04T01:19:27.467Z,13.00
2023-05-04T01:21:57.315Z,13.60
2023-05-04T01:24:25.585Z,13.70
2023-05-04T01:26:57.554Z,13.70
2023-05-04T01:29:31.782Z,13.80
2023-05-04T01:32:00.893Z,13.90
2023-05-04T01:34:28.798Z,13.90
2023-05-04T01:36:58.468Z,13.80
2023-05-04T01:39:26.265Z,13.90
2023-05-04T01:41:54.077Z,14.20
2023-05-04T01:44:21.805Z,13.70
2023-05-04T01:46:49.546Z,13.30
2023-05-04T01:49:17.385Z,13.90
2023-05-04T01:51:46.734Z,13.90
2023-05-04T01:54:16.088Z,13.30
2023-05-04T01:56:43.853Z,13.50
2023-05-04T01:59:11.691Z,13.50
2023-05-04T02:01:39.614Z,13.00
2023-05-04T02:04:07.461Z,13.40
2023-05-04T02:06:35.410Z,12.90
2023-05-04T02:09:03.527Z,13.00
2023-05-04T02:11:32.629Z,13.00
2023-05-04T02:14:00.406Z,13.20
2023-05-04T02:16:28.146Z,13.20
2023-05-04T02:18:56.085Z,12.60
2023-05-04T02:21:24.028Z,13.00
2023-05-04T02:23:51.821Z,12.80
2023-05-04T02:26:19.669Z,13.00
2023-05-04T02:28:48.713Z,12.90
2023-05-04T02:31:16.515Z,12.90
2023-05-04T02:33:44.247Z,12.40
2023-05-04T02:36:11.922Z,12.60
2023-05-04T02:38:39.616Z,12.80
2023-05-04T02:41:07.312Z,12.70
2023-05-04T02:43:35.050Z,12.60
2023-05-04T02:46:04.167Z,12.60
2023-05-04T02:48:32.457Z,12.40
2023-05-04T02:51:00.626Z,12.10
2023-05-04T02:53:28.318Z,12.10
2023-05-04T02:55:56.050Z,12.50
2023-05-04T02:58:23.761Z,12.10
2023-05-04T03:00:54.690Z,11.90
2023-05-04T03:03:23.847Z,12.50
2023-05-04T03:05:51.553Z,12.20
2023-05-04T03:08:19.301Z,12.20
2023-05-04T03:10:47.073Z,12.20
2023-05-04T03:13:14.915Z,12.10
2023-05-04T03:15:42.743Z,12.00
2023-05-04T03:18:10.617Z,11.70
2023-05-04T03:20:39.853Z,11.70
2023-05-04T03:23:07.670Z,11.90
2023-05-04T03:25:35.378Z,11.90
2023-05-04T03:28:03.110Z,11.80
2023-05-04T03:30:30.832Z,11.30
2023-05-04T03:32:58.677Z,11.80
2023-05-04T03:35:26.640Z,11.20
2023-05-04T03:37:55.828Z,11.70
2023-05-04T03:40:24.235Z,11.80
2023-05-04T03:42:52.319Z,11.70
2023-05-04T03:45:20.420Z,11.90
2023-05-04T03:47:48.128Z,11.80
2023-05-04T03:50:16.002Z,11.60
2023-05-04T03:52:43.713Z,11.70
2023-05-04T03:55:12.815Z,11.80
2023-05-04T03:57:41.316Z,11.80
2023-05-04T04:00:10.004Z,11.30
2023-05-04T04:02:37.864Z,11.60
2023-05-04T04:05:06.601Z,11.70
2023-05-04T04:07:34.335Z,11.60
2023-05-04T04:10:02.165Z,11.90
2023-05-04T04:12:31.358Z,11.80
2023-05-04T04:14:59.088Z,11.80
2023-05-04T04:17:26.926Z,11.80
2023-05-04T04:19:54.885Z,11.80
2023-05-04T04:22:22.576Z,11.90
2023-05-04T04:24:50.378Z,12.00
2023-05-04T04:27:18.525Z,12.10
2023-05-04T04:29:47.738Z,11.80
2023-05-04T04:32:15.572Z,12.10
2023-05-04T04:34:43.337Z,11.70
2023-05-04T04:37:11.893Z,12.00
2023-05-04T04:39:39.667Z,12.30
2023-05-04T04:42:07.549Z,12.00
2023-05-04T04:44:35.713Z,11.60
2023-05-04T04:47:04.771Z,12.10
2023-05-04T04:49:32.485Z,12.00
2023-05-04T04:52:00.209Z,11.80
2023-05-04T04:54:28.381Z,12.30
2023-05-04T04:56:56.112Z,12.10
2023-05-04T04:59:24.805Z,12.40
2023-05-04T05:01:52.728Z,12.60
2023-05-04T05:04:22.203Z,12.30
2023-05-04T05:06:51.417Z,12.80
2023-05-04T05:09:19.168Z,12.60
2023-05-04T05:11:46.948Z,13.00
2023-05-04T05:14:14.634Z,13.10
2023-05-04T05:16:42.411Z,12.70
2023-05-04T05:19:10.161Z,13.20
2023-05-04T05:21:39.533Z,13.00
2023-05-04T05:24:07.539Z,13.30
2023-05-04T05:26:35.336Z,13.50
2023-05-04T05:29:03.628Z,13.40
2023-05-04T05:31:31.863Z,13.50
2023-05-04T05:33:59.782Z,13.60
2023-05-04T05:36:27.783Z,13.80
2023-05-04T05:38:56.889Z,13.70
2023-05-04T05:41:24.593Z,13.70
2023-05-04T05:43:52.411Z,13.90
2023-05-04T05:46:20.272Z,13.90
2023-05-04T05:48:48.025Z,13.90
2023-05-04T05:51:15.789Z,14.10
2023-05-04T05:53:44.772Z,13.90
2023-05-04T05:56:14.751Z,14.30
2023-05-04T05:58:42.530Z,14.40
2023-05-04T06:01:10.241Z,14.50
2023-05-04T06:03:38.113Z,14.00
2023-05-04T06:06:06.345Z,14.40
2023-05-04T06:08:34.286Z,14.90
2023-05-04T06:11:01.980Z,14.70
2023-05-04T06:13:31.008Z,15.00
2023-05-04T06:15:58.869Z,15.30
2023-05-04T06:18:26.737Z,15.50
2023-05-04T06:20:59.609Z,15.60
2023-05-04T06:23:29.273Z,15.70
2023-05-04T06:25:57.027Z,15.80
2023-05-04T06:28:24.760Z,16.30
2023-05-04T06:30:53.821Z,16.80
2023-05-04T06:33:21.794Z,16.70
2023-05-04T06:35:49.539Z,16.90
2023-05-04T06:38:17.278Z,18.30
2023-05-04T06:40:45.086Z,20.50
2023-05-04T06:43:12.952Z,22.00
2023-05-04T06:45:41.075Z,22.30
2023-05-04T06:48:10.435Z,23.10
2023-05-04T06:50:38.248Z,24.20
2023-05-04T06:53:09.421Z,25.30
2023-05-04T06:55:37.495Z,26.20
2023-05-04T06:58:05.789Z,26.90
2023-05-04T07:00:33.495Z,26.60
2023-05-04T07:03:01.296Z,26.30
2023-05-04T07:05:30.632Z,26.50
2023-05-04T07:07:59.707Z,27.10
2023-05-04T07:10:28.473Z,27.30
2023-05-04T07:12:56.629Z,27.30
2023-05-04T07:15:24.387Z,27.80
2023-05-04T07:17:52.199Z,28.10
2023-05-04T07:20:23.505Z,28.30
2023-05-04T07:22:56.766Z,28.10
2023-05-04T07:25:24.857Z,28.50
2023-05-04T07:27:53.135Z,28.50
2023-05-04T07:30:21.525Z,27.70
2023-05-04T07:32:49.437Z,27.20
2023-05-04T07:35:17.212Z,27.60
2023-05-04T07:37:44.961Z,27.40
2023-05-04T07:40:15.407Z,27.60
2023-05-04T07:42:43.164Z,27.90
2023-05-04T07:45:11.803Z,27.50
2023-05-04T07:47:39.596Z,27.70
2023-05-04T07:50:08.626Z,28.20
2023-05-04T07:52:36.432Z,28.50
2023-05-04T07:55:04.256Z,28.30
2023-05-04T07:57:35.635Z,27.70
2023-05-04T08:00:04.972Z,28.70
2023-05-04T08:02:34.479Z,28.90
2023-05-04T08:05:04.296Z,28.30
2023-05-04T08:07:34.222Z,28.00
2023-05-04T08:10:04.487Z,28.60
2023-05-04T08:12:36.248Z,27.30
2023-05-04T08:15:06.621Z,28.50
2023-05-04T08:17:38.498Z,29.00
2023-05-04T08:20:10.042Z,28.70
2023-05-04T08:22:39.769Z,29.00
2023-05-04T08:25:11.145Z,29.10
2023-05-04T08:27:42.549Z,28.80
2023-05-04T08:30:12.952Z,28.90
2023-05-04T08:32:42.821Z,29.40
2023-05-04T08:35:12.642Z,30.20
2023-05-04T08:37:42.460Z,30.10
2023-05-04T08:40:12.599Z,29.30
2023-05-04T08:42:48.594Z,29.60
2023-05-04T08:45:18.742Z,29.30
2023-05-04T08:47:48.606Z,28.40
2023-05-04T08:50:18.475Z,28.20
2023-05-04T08:52:49.402Z,28.30
2023-05-04T08:55:20.134Z,29.20
2023-05-04T08:57:51.180Z,29.10
2023-05-04T09:00:19.959Z,28.70
2023-05-04T09:02:50.083Z,28.70
2023-05-04T09:05:19.064Z,28.30
2023-05-04T09:07:48.600Z,28.70
2023-05-04T09:10:16.661Z,28.10
2023-05-04T09:12:44.449Z,27.80
2023-05-04T09:15:18.056Z,28.20
2023-05-04T09:17:57.657Z,27.90
2023-05-04T09:20:26.652Z,27.50
2023-05-04T09:23:06.837Z,27.30
2023-05-04T09:25:35.262Z,27.20
2023-05-04T09:28:02.936Z,27.90
2023-05-04T09:30:32.017Z,27.80
2023-05-04T09:33:00.237Z,27.70
2023-05-04T09:35:33.658Z,27.90
2023-05-04T09:38:02.250Z,27.50
2023-05-04T09:40:33.609Z,28.20
2023-05-04T09:43:01.458Z,28.60
2023-05-04T09:45:41.185Z,28.30
2023-05-04T09:48:21.830Z,27.80
2023-05-04T09:50:51.948Z,27.40
2023-05-04T09:53:21.417Z,27.30
2023-05-04T09:55:59.065Z,27.20
2023-05-04T09:58:30.140Z,26.90
2023-05-04T10:01:01.481Z,26.40
2023-05-04T10:03:29.606Z,26.80
2023-05-04T10:05:59.217Z,27.50
2023-05-04T10:08:28.990Z,27.60
2023-05-04T10:10:57.810Z,28.10
2023-05-04T10:13:26.149Z,27.60
2023-05-04T10:16:07.569Z,27.00
2023-05-04T10:18:49.925Z,26.70
2023-05-04T10:21:26.992Z,27.00
2023-05-04T10:24:21.464Z,27.50
2023-05-04T10:27:06.756Z,27.70
2023-05-04T10:29:36.023Z,27.60
2023-05-04T10:32:07.732Z,27.70
2023-05-04T10:34:36.800Z,27.80
2023-05-04T10:37:04.877Z,27.90
2023-05-04T10:39:33.979Z,28.00
2023-05-04T10:42:05.481Z,28.00
2023-05-04T10:44:34.505Z,27.80
2023-05-04T10:47:06.665Z,27.60
2023-05-04T10:49:35.521Z,27.00
2023-05-04T10:52:07.902Z,26.50
2023-05-04T10:54:36.186Z,26.60
2023-05-04T10:57:09.029Z,26.50
2023-05-04T10:59:37.825Z,27.00
2023-05-04T11:02:07.985Z,27.00
2023-05-04T11:04:36.232Z,27.20
2023-05-04T11:07:05.221Z,27.60
2023-05-04T11:09:37.739Z,27.60
2023-05-04T11:12:06.264Z,27.40
2023-05-04T11:14:37.614Z,27.30
2023-05-04T11:17:26.912Z,27.00
2023-05-04T11:19:56.288Z,26.90
2023-05-04T11:22:24.361Z,26.90
2023-05-04T11:24:53.286Z,27.00
2023-05-04T11:27:23.685Z,26.90
2023-05-04T11:29:58.425Z,26.50
2023-05-04T11:32:38.222Z,26.30
2023-05-04T11:35:09.102Z,26.20
2023-05-04T11:37:41.223Z,26.50
2023-05-04T11:40:14.704Z,26.70
2023-05-04T11:42:43.469Z,26.50
2023-05-04T11:45:14.218Z,26.50
2023-05-04T11:47:44.157Z,26.10
2023-05-04T11:50:13.987Z,26.30
2023-05-04T11:52:42.230Z,26.40
2023-05-04T11:55:11.407Z,26.50
2023-05-04T11:57:39.694Z,25.90
2023-05-04T12:00:09.019Z,25.80
2023-05-04T12:02:37.031Z,25.90
2023-05-04T12:05:13.956Z,26.20
2023-05-04T12:07:42.036Z,26.40
2023-05-04T12:10:10.379Z,26.50
2023-05-04T12:12:38.183Z,26.50
2023-05-04T12:15:06.630Z,26.60
2023-05-04T12:17:41.885Z,26.70
2023-05-04T12:20:11.993Z,26.70
2023-05-04T12:22:39.826Z,26.80
2023-05-04T12:25:09.285Z,27.00
2023-05-04T12:27:42.480Z,27.10
2023-05-04T12:30:11.749Z,27.30
2023-05-04T12:32:39.728Z,27.20
2023-05-04T12:35:08.258Z,27.30
2023-05-04T12:37:37.916Z,27.00
2023-05-04T12:40:17.324Z,26.70
2023-05-04T12:42:54.901Z,26.50
2023-05-04T12:45:23.205Z,26.50
2023-05-04T12:47:51.017Z,26.80
2023-05-04T12:50:18.806Z,27.10
2023-05-04T12:52:47.940Z,26.80
2023-05-04T12:55:15.723Z,27.10
2023-05-04T12:57:44.861Z,27.10
2023-05-04T13:00:14.005Z,26.90
2023-05-04T13:02:41.808Z,26.70
2023-05-04T13:05:09.774Z,26.60
2023-05-04T13:07:37.589Z,26.60
2023-05-04T13:10:07.970Z,26.70
2023-05-04T13:12:35.992Z,26.50
2023-05-04T13:15:04.097Z,26.30
2023-05-04T13:17:33.767Z,26.20
2023-05-04T13:20:05.868Z,26.00
2023-05-04T13:22:34.013Z,26.10
2023-05-04T13:25:02.050Z,26.10
2023-05-04T13:27:40.315Z,25.90
2023-05-04T13:30:10.843Z,25.90
2023-05-04T13:32:38.648Z,26.10
2023-05-04T13:35:07.589Z,26.10
2023-05-04T13:37:35.537Z,25.90
2023-05-04T13:40:03.459Z,25.90
2023-05-04T13:42:33.950Z,25.90
2023-05-04T13:45:02.986Z,26.00
2023-05-04T13:47:30.744Z,26.00
2023-05-04T13:49:58.724Z,26.00
2023-05-04T13:52:27.908Z,25.90
2023-05-04T13:54:55.932Z,26.10
2023-05-04T13:57:23.610Z,26.20
2023-05-04T14:00:05.857Z,26.20
2023-05-04T14:02:35.078Z,26.20
2023-05-04T14:05:03.779Z,26.50
2023-05-04T14:07:31.652Z,26.50
2023-05-04T14:10:00.300Z,26.30
2023-05-04T14:12:29.195Z,26.00
2023-05-04T14:14:58.917Z,25.70
2023-05-04T14:17:26.723Z,25.70
2023-05-04T14:19:54.486Z,25.70
2023-05-04T14:22:22.265Z,25.70
2023-05-04T14:24:50.456Z,25.70
2023-05-04T14:27:18.346Z,25.70
2023-05-04T14:29:47.845Z,25.80
2023-05-04T14:32:17.305Z,25.70
2023-05-04T14:34:46.765Z,25.60
2023-05-04T14:37:14.715Z,25.60
2023-05-04T14:39:42.456Z,25.50
2023-05-04T14:42:10.172Z,25.80
2023-05-04T14:44:37.859Z,25.80
2023-05-04T14:47:07.745Z,25.60
2023-05-04T14:49:42.221Z,25.60
2023-05-04T14:52:10.104Z,25.50
2023-05-04T14:54:38.310Z,25.70
2023-05-04T14:57:08.909Z,25.60
2023-05-04T14:59:37.407Z,25.50
2023-05-04T15:02:06.482Z,25.50
2023-05-04T15:04:34.639Z,25.50
2023-05-04T15:07:05.213Z,25.30
2023-05-04T15:09:33.112Z,25.20
2023-05-04T15:12:00.853Z,25.20
2023-05-04T15:14:28.555Z,25.30
2023-05-04T15:16:56.237Z,25.20
2023-05-04T15:19:23.960Z,25.30
2023-05-04T15:21:51.822Z,25.50
2023-05-04T15:24:20.921Z,25.50
2023-05-04T15:26:48.713Z,25.60
2023-05-04T15:29:16.474Z,25.50
2023-05-04T15:31:44.367Z,25.40
2023-05-04T15:34:12.161Z,25.30
2023-05-04T15:36:39.910Z,25.50
2023-05-04T15:39:08.224Z,25.30
2023-05-04T15:41:37.608Z,25.30
2023-05-04T15:44:06.633Z,25.20
2023-05-04T15:46:34.497Z,25.30
2023-05-04T15:49:02.278Z,25.40
2023-05-04T15:51:31.742Z,25.40
2023-05-04T15:53:59.587Z,25.40
2023-05-04T15:56:27.405Z,25.60
2023-05-04T15:58:56.662Z,25.50
2023-05-04T16:01:24.500Z,25.30
2023-05-04T16:03:55.280Z,25.50
2023-05-04T16:06:23.721Z,25.40
2023-05-04T16:08:51.702Z,25.50
2023-05-04T16:11:19.521Z,25.40
2023-05-04T16:13:47.222Z,25.40
2023-05-04T16:16:16.397Z,25.50
2023-05-04T16:18:44.318Z,25.40
2023-05-04T16:21:14.032Z,25.30
2023-05-04T16:23:41.812Z,25.40
2023-05-04T16:26:09.663Z,25.30
2023-05-04T16:28:37.913Z,25.30
2023-05-04T16:31:05.951Z,25.30
2023-05-04T16:33:35.095Z,25.20
2023-05-04T16:36:05.669Z,25.00
2023-05-04T16:38:33.333Z,25.00
2023-05-04T16:41:01.044Z,24.90
2023-05-04T16:43:28.762Z,24.70
2023-05-04T16:45:56.591Z,24.70
2023-05-04T16:48:24.330Z,24.70
2023-05-04T16:50:53.469Z,24.70
2023-05-04T16:53:21.343Z,24.60
2023-05-04T16:55:50.830Z,24.60
2023-05-04T16:58:18.620Z,24.60
2023-05-04T17:00:47.397Z,24.70
2023-05-04T17:03:15.264Z,24.60
2023-05-04T17:05:43.066Z,24.50
2023-05-04T17:08:12.493Z,24.40
2023-05-04T17:10:41.025Z,24.30
2023-05-04T17:13:08.862Z,24.20
2023-05-04T17:15:36.617Z,24.20
2023-05-04T17:18:04.587Z,24.10
2023-05-04T17:20:32.387Z,24.00
2023-05-04T17:23:00.496Z,24.00
2023-05-04T17:25:29.701Z,23.90
2023-05-04T17:27:57.430Z,23.80
2023-05-04T17:30:25.954Z,23.80
2023-05-04T17:32:55.728Z,23.70
2023-05-04T17:35:26.251Z,23.70
2023-05-04T17:37:57.042Z,23.80
2023-05-04T17:40:26.054Z,23.80
2023-05-04T17:42:55.248Z,23.80
2023-05-04T17:45:23.136Z,23.80
2023-05-04T17:47:51.622Z,23.60
2023-05-04T17:50:19.798Z,23.60
2023-05-04T17:52:52.453Z,23.50
2023-05-04T17:55:20.336Z,23.50
2023-05-04T17:57:48.070Z,23.40
2023-05-04T18:00:18.093Z,23.40
2023-05-04T18:02:46.017Z,23.40
2023-05-04T18:05:13.877Z,23.40
2023-05-04T18:07:41.707Z,23.30
2023-05-04T18:10:10.566Z,23.20
2023-05-04T18:12:38.681Z,23.10
2023-05-04T18:15:08.908Z,23.00
2023-05-04T18:17:38.664Z,23.00
2023-05-04T18:20:08.992Z,22.90
2023-05-04T18:22:37.363Z,22.70
2023-05-04T18:25:05.641Z,22.30
2023-05-04T18:27:34.319Z,22.60
2023-05-04T18:30:02.454Z,22.60
2023-05-04T18:32:30.377Z,22.30
2023-05-04T18:34:59.500Z,22.30
2023-05-04T18:37:30.334Z,22.20
2023-05-04T18:39:58.429Z,22.20
2023-05-04T18:42:26.720Z,22.20
2023-05-04T18:44:54.687Z,21.90
2023-05-04T18:47:22.505Z,22.20
2023-05-04T18:49:54.416Z,22.10
2023-05-04T18:52:23.765Z,21.90
2023-05-04T18:54:51.522Z,21.90
2023-05-04T18:57:19.346Z,21.90
2023-05-04T18:59:47.060Z,21.90
2023-05-04T19:02:15.133Z,21.50
2023-05-04T19:04:42.902Z,21.70
2023-05-04T19:07:10.639Z,21.20
2023-05-04T19:09:39.847Z,21.80
2023-05-04T19:12:08.018Z,22.00
2023-05-04T19:14:35.752Z,21.40
2023-05-04T19:17:04.680Z,21.60
2023-05-04T19:19:36.250Z,21.60
2023-05-04T19:22:04.208Z,21.60
2023-05-04T19:24:34.222Z,21.60
2023-05-04T19:27:03.379Z,21.60
2023-05-04T19:29:31.068Z,21.20
2023-05-04T19:32:01.287Z,21.50
2023-05-04T19:34:33.603Z,21.50
2023-05-04T19:37:01.370Z,21.50
2023-05-04T19:39:29.398Z,21.40
2023-05-04T19:41:57.109Z,21.50
2023-05-04T19:44:26.206Z,21.40
2023-05-04T19:46:53.961Z,21.40
2023-05-04T19:49:22.152Z,21.20
2023-05-04T19:51:50.024Z,21.30
2023-05-04T19:54:17.987Z,21.30
2023-05-04T19:56:46.233Z,21.30
2023-05-04T19:59:14.040Z,21.10
2023-05-04T20:01:43.182Z,21.00
2023-05-04T20:04:11.054Z,21.20
2023-05-04T20:06:38.842Z,21.20
2023-05-04T20:09:06.690Z,21.30
2023-05-04T20:11:35.883Z,21.10
2023-05-04T20:14:03.620Z,21.10
2023-05-04T20:16:31.596Z,21.00
2023-05-04T20:19:03.429Z,20.90
2023-05-04T20:21:32.086Z,21.00
2023-05-04T20:23:59.938Z,21.00
2023-05-04T20:26:27.693Z,21.00
2023-05-04T20:28:55.473Z,20.80
2023-05-04T20:31:23.285Z,20.90
2023-05-04T20:33:51.003Z,21.00
2023-05-04T20:36:20.115Z,20.60
2023-05-04T20:38:48.001Z,20.80
2023-05-04T20:41:15.883Z,20.70
2023-05-04T20:43:43.746Z,20.80
2023-05-04T20:46:12.024Z,20.80
2023-05-04T20:48:40.645Z,20.90
2023-05-04T20:51:14.679Z,20.80
2023-05-04T20:53:45.171Z,21.00
2023-05-04T20:56:14.619Z,20.80
2023-05-04T20:58:42.384Z,20.80
2023-05-04T21:01:10.217Z,20.90
2023-05-04T21:03:38.122Z,20.80
2023-05-04T21:06:06.472Z,20.70
2023-05-04T21:08:34.370Z,20.70
2023-05-04T21:11:03.415Z,20.70
2023-05-04T21:13:31.327Z,20.70
2023-05-04T21:15:59.437Z,20.60
2023-05-04T21:18:27.422Z,20.30
2023-05-04T21:20:55.301Z,20.80
2023-05-04T21:23:24.893Z,20.30
2023-05-04T21:26:01.017Z,20.60
2023-05-04T21:28:30.304Z,20.90
2023-05-04T21:30:58.778Z,20.50
2023-05-04T21:33:26.613Z,20.50
2023-05-04T21:35:54.765Z,20.40
2023-05-04T21:38:22.694Z,20.20
2023-05-04T21:40:51.535Z,20.30
2023-05-04T21:43:19.390Z,20.40
2023-05-04T21:45:48.701Z,20.50
2023-05-04T21:48:16.504Z,20.20
2023-05-04T21:50:44.389Z,20.00
2023-05-04T21:53:12.230Z,19.70
2023-05-04T21:55:40.282Z,20.00
2023-05-04T21:58:08.084Z,19.50
2023-05-04T22:00:36.129Z,19.70
2023-05-04T22:03:05.400Z,19.20
2023-05-04T22:05:33.368Z,19.60
2023-05-04T22:08:01.586Z,19.80
2023-05-04T22:10:29.448Z,19.40
2023-05-04T22:12:57.249Z,18.90
2023-05-04T22:15:31.676Z,19.30
2023-05-04T22:18:07.404Z,19.10
2023-05-04T22:20:35.216Z,19.40
2023-05-04T22:23:03.068Z,18.90
2023-05-04T22:25:31.211Z,19.10
2023-05-04T22:27:59.324Z,18.80
2023-05-04T22:30:27.608Z,18.90
2023-05-04T22:32:56.191Z,18.50
2023-05-04T22:35:25.498Z,19.00
2023-05-04T22:37:53.398Z,18.30
2023-05-04T22:40:21.350Z,18.60
2023-05-04T22:42:49.195Z,18.90
2023-05-04T22:45:17.983Z,18.50
2023-05-04T22:47:46.169Z,18.60
2023-05-04T22:50:14.276Z,18.60
2023-05-04T22:52:43.656Z,18.60
2023-05-04T22:55:11.624Z,18.60
2023-05-04T22:57:39.347Z,18.30
2023-05-04T23:00:08.970Z,18.20
2023-05-04T23:02:37.141Z,18.50
2023-05-04T23:05:05.856Z,18.40
2023-05-04T23:07:33.738Z,17.80
2023-05-04T23:10:03.195Z,18.10
2023-05-04T23:12:31.482Z,18.30
2023-05-04T23:14:59.223Z,17.80
2023-05-04T23:17:27.003Z,17.80
2023-05-04T23:19:54.784Z,17.50
2023-05-04T23:22:22.568Z,17.80
2023-05-04T23:24:50.329Z,17.80
2023-05-04T23:27:19.381Z,17.80
2023-05-04T23:29:47.058Z,17.70
2023-05-04T23:32:14.762Z,17.90
2023-05-04T23:34:42.488Z,17.40
2023-05-04T23:37:10.591Z,17.60
2023-05-04T23:39:38.339Z,17.50
2023-05-04T23:42:06.107Z,17.80
2023-05-04T23:44:35.236Z,17.50
2023-05-04T23:47:03.029Z,17.30
2023-05-04T23:49:30.811Z,17.60
2023-05-04T23:51:58.494Z,17.50
2023-05-04T23:54:26.172Z,17.40
2023-05-04T23:56:53.965Z,17.30
2023-05-04T23:59:21.717Z,17.60
